Shin Puropan Maru — JG5508 — position and weather

sailwx.info

Track history (hours):
 
Tides and Currents Weather Stations Pressure Air Temp Water Temp Dewpoint Dewpoint Depression Visibility Wind Speed Wind Dir Waves Ship Positions

Shin Puropan Maru

Last reported at 2016-Aug-28 01:30 UTC. Time now 2016-Aug-28 02:19 UTC.
Position N 35°33' E 140°05'.

Length 66 m; draft 3.6 m.

Type: Ship (hazmat cat A). MMSI: 431100348.

Date/timePositionNaut miles runAvg speedWind from/ knotsBaromVisibWave heightAir tempDewpointWater temp
2016-Aug-28 01:30N 35°33' E 140°05'0 0.0
2016-Aug-28 00:30N 35°33' E 140°05'0 0.0
2016-Aug-27 23:30N 35°33' E 140°05'0 0.0
2016-Aug-27 22:33N 35°33' E 140°05'0 0.0
2016-Aug-27 21:30N 35°33' E 140°05'0 0.0
2016-Aug-27 20:30N 35°33' E 140°05'0 0.0
2016-Aug-27 19:33N 35°33' E 140°05'0 0.0
2016-Aug-27 18:33N 35°33' E 140°05'0 0.0
2016-Aug-27 17:30N 35°33' E 140°05'0 0.0
2016-Aug-27 16:30N 35°33' E 140°05'0 0.0
2016-Aug-27 15:27N 35°33' E 140°05'0 0.0
2016-Aug-27 14:30N 35°33' E 140°05'1 0.8
2016-Aug-27 13:33N 35°33' E 140°04'1111.1
2016-Aug-27 12:33N 35°29' E 139°52'1211.6
2016-Aug-27 11:33N 35°19' E 139°44'1211.5
2016-Aug-27 10:33N 35°07' E 139°45'24110.4
2016-Aug-26 11:25N 34°05' E 135°02'1012.2
2016-Aug-26 10:33N 34°15' E 135°03'1212.1
2016-Aug-26 09:33N 34°26' E 135°11'1212.1
2016-Aug-26 08:34N 34°35' E 135°20'4 1.1
2016-Aug-26 04:33N 34°34' E 135°26'7 7.4
2016-Aug-26 03:33N 34°32' E 135°17'1312.5
2016-Aug-26 02:33N 34°22' E 135°07'1212.4
2016-Aug-26 01:33N 34°10' E 135°03'9 0.3
2016-Aug-24 14:28N 34°01' E 135°03'1212.5
2016-Aug-24 13:30N 34°13' E 135°03'1411.8
2016-Aug-24 12:18N 34°26' E 135°11'912.9
2016-Aug-24 11:33N 34°33' E 135°19'6 1.4
2016-Aug-24 07:19N 34°35' E 135°26'4 5.6
2016-Aug-24 06:33N 34°35' E 135°21'2512.1
2016-Aug-24 04:31N 34°15' E 135°03'8 0.2
2016-Aug-22 01:33N 34°07' E 135°02'1611.0
2016-Aug-22 00:05N 34°23' E 135°09'1 1.2
2016-Aug-21 23:28N 34°23' E 135°09'0 0.1
2016-Aug-21 22:10N 34°23' E 135°09'0 0.0
2016-Aug-21 21:28N 34°23' E 135°09'0 0.0
2016-Aug-21 19:10N 34°23' E 135°09'0 0.0
2016-Aug-21 11:16N 34°23' E 135°09'0 0.1
2016-Aug-21 10:22N 34°23' E 135°09'0 0.0
2016-Aug-21 08:22N 34°23' E 135°09'0 0.0
2016-Aug-21 07:22N 34°23' E 135°09'0 0.0
2016-Aug-21 06:28N 34°23' E 135°09'0 0.0
2016-Aug-21 05:28N 34°23' E 135°09'0 0.0
2016-Aug-21 03:28N 34°23' E 135°09'0 0.1
2016-Aug-21 02:28N 34°23' E 135°09'0 0.0
2016-Aug-20 23:16N 34°23' E 135°09'0 0.0
2016-Aug-20 22:22N 34°23' E 135°09'0 0.0
2016-Aug-20 12:22N 34°23' E 135°09'1 0.7
2016-Aug-20 11:33N 34°24' E 135°09'1212.3
2016-Aug-20 10:32N 34°33' E 135°19'5 0.9
2016-Aug-20 04:33N 34°36' E 135°25'2 1.9
2016-Aug-20 03:33N 34°36' E 135°23'3 0.6
2016-Aug-19 22:33N 34°35' E 135°26'2 2.2
2016-Aug-19 21:32N 34°35' E 135°23'0 0.0
2016-Aug-19 20:14N 34°35' E 135°23'0 0.0
2016-Aug-19 19:32N 34°35' E 135°23'0 0.0
2016-Aug-19 18:32N 34°35' E 135°23'0 0.0
2016-Aug-19 17:32N 34°35' E 135°23'0 0.0
2016-Aug-19 16:26N 34°35' E 135°23'0 0.0
2016-Aug-19 15:20N 34°35' E 135°23'0 0.1
2016-Aug-19 14:26N 34°35' E 135°23'0 0.0
2016-Aug-19 13:08N 34°35' E 135°23'0 0.0
2016-Aug-19 12:32N 34°35' E 135°23'0 0.0
2016-Aug-19 11:32N 34°35' E 135°23'1 1.0
2016-Aug-19 10:32N 34°35' E 135°22'1212.2
2016-Aug-19 09:33N 34°27' E 135°11'1413.0
2016-Aug-19 08:30N 34°15' E 135°02'23510.0
2016-Aug-18 09:04N 35°07' E 139°41'611.4
2016-Aug-18 08:33N 35°11' E 139°45'1110.9
2016-Aug-18 07:34N 35°22' E 139°43'1111.0
2016-Aug-18 06:33N 35°30' E 139°52'1110.8
2016-Aug-18 05:33N 35°33' E 140°05'0 0.1
2016-Aug-18 04:31N 35°33' E 140°05'0 0.0
2016-Aug-18 03:28N 35°33' E 140°05'0 0.0
2016-Aug-18 02:31N 35°33' E 140°05'0 0.0
2016-Aug-18 01:31N 35°33' E 140°05'  
Track history (hours):
 
Tides and Currents Weather Stations Pressure Air Temp Water Temp Dewpoint Dewpoint Depression Visibility Wind Speed Wind Dir Waves Ship Positions

Shin Puropan Maru

Last reported at 2016-Aug-28 01:30 UTC. Time now 2016-Aug-28 02:19 UTC.
Position N 35°33' E 140°05'.

Length 66 m; draft 3.6 m.

Type: Ship (hazmat cat A). MMSI: 431100348.

Date/timePositionNaut miles runAvg speedWind from/ knotsBaromVisibWave heightAir tempDewpointWater temp
2016-Aug-28 01:30N 35°33' E 140°05'0 0.0
2016-Aug-28 00:30N 35°33' E 140°05'0 0.0
2016-Aug-27 23:30N 35°33' E 140°05'0 0.0
2016-Aug-27 22:33N 35°33' E 140°05'0 0.0
2016-Aug-27 21:30N 35°33' E 140°05'0 0.0
2016-Aug-27 20:30N 35°33' E 140°05'0 0.0
2016-Aug-27 19:33N 35°33' E 140°05'0 0.0
2016-Aug-27 18:33N 35°33' E 140°05'0 0.0
2016-Aug-27 17:30N 35°33' E 140°05'0 0.0
2016-Aug-27 16:30N 35°33' E 140°05'0 0.0
2016-Aug-27 15:27N 35°33' E 140°05'0 0.0
2016-Aug-27 14:30N 35°33' E 140°05'1 0.8
2016-Aug-27 13:33N 35°33' E 140°04'1111.1
2016-Aug-27 12:33N 35°29' E 139°52'1211.6
2016-Aug-27 11:33N 35°19' E 139°44'1211.5
2016-Aug-27 10:33N 35°07' E 139°45'24110.4
2016-Aug-26 11:25N 34°05' E 135°02'1012.2
2016-Aug-26 10:33N 34°15' E 135°03'1212.1
2016-Aug-26 09:33N 34°26' E 135°11'1212.1
2016-Aug-26 08:34N 34°35' E 135°20'4 1.1
2016-Aug-26 04:33N 34°34' E 135°26'7 7.4
2016-Aug-26 03:33N 34°32' E 135°17'1312.5
2016-Aug-26 02:33N 34°22' E 135°07'1212.4
2016-Aug-26 01:33N 34°10' E 135°03'9 0.3
2016-Aug-24 14:28N 34°01' E 135°03'1212.5
2016-Aug-24 13:30N 34°13' E 135°03'1411.8
2016-Aug-24 12:18N 34°26' E 135°11'912.9
2016-Aug-24 11:33N 34°33' E 135°19'6 1.4
2016-Aug-24 07:19N 34°35' E 135°26'4 5.6
2016-Aug-24 06:33N 34°35' E 135°21'2512.1
2016-Aug-24 04:31N 34°15' E 135°03'8 0.2
2016-Aug-22 01:33N 34°07' E 135°02'1611.0
2016-Aug-22 00:05N 34°23' E 135°09'1 1.2
2016-Aug-21 23:28N 34°23' E 135°09'0 0.1
2016-Aug-21 22:10N 34°23' E 135°09'0 0.0
2016-Aug-21 21:28N 34°23' E 135°09'0 0.0
2016-Aug-21 19:10N 34°23' E 135°09'0 0.0
2016-Aug-21 11:16N 34°23' E 135°09'0 0.1
2016-Aug-21 10:22N 34°23' E 135°09'0 0.0
2016-Aug-21 08:22N 34°23' E 135°09'0 0.0
2016-Aug-21 07:22N 34°23' E 135°09'0 0.0
2016-Aug-21 06:28N 34°23' E 135°09'0 0.0
2016-Aug-21 05:28N 34°23' E 135°09'0 0.0
2016-Aug-21 03:28N 34°23' E 135°09'0 0.1
2016-Aug-21 02:28N 34°23' E 135°09'0 0.0
2016-Aug-20 23:16N 34°23' E 135°09'0 0.0
2016-Aug-20 22:22N 34°23' E 135°09'0 0.0
2016-Aug-20 12:22N 34°23' E 135°09'1 0.7
2016-Aug-20 11:33N 34°24' E 135°09'1212.3
2016-Aug-20 10:32N 34°33' E 135°19'5 0.9
2016-Aug-20 04:33N 34°36' E 135°25'2 1.9
2016-Aug-20 03:33N 34°36' E 135°23'3 0.6
2016-Aug-19 22:33N 34°35' E 135°26'2 2.2
2016-Aug-19 21:32N 34°35' E 135°23'0 0.0
2016-Aug-19 20:14N 34°35' E 135°23'0 0.0
2016-Aug-19 19:32N 34°35' E 135°23'0 0.0
2016-Aug-19 18:32N 34°35' E 135°23'0 0.0
2016-Aug-19 17:32N 34°35' E 135°23'0 0.0
2016-Aug-19 16:26N 34°35' E 135°23'0 0.0
2016-Aug-19 15:20N 34°35' E 135°23'0 0.1
2016-Aug-19 14:26N 34°35' E 135°23'0 0.0
2016-Aug-19 13:08N 34°35' E 135°23'0 0.0
2016-Aug-19 12:32N 34°35' E 135°23'0 0.0
2016-Aug-19 11:32N 34°35' E 135°23'1 1.0
2016-Aug-19 10:32N 34°35' E 135°22'1212.2
2016-Aug-19 09:33N 34°27' E 135°11'1413.0
2016-Aug-19 08:30N 34°15' E 135°02'23510.0
2016-Aug-18 09:04N 35°07' E 139°41'611.4
2016-Aug-18 08:33N 35°11' E 139°45'1110.9
2016-Aug-18 07:34N 35°22' E 139°43'1111.0
2016-Aug-18 06:33N 35°30' E 139°52'1110.8
2016-Aug-18 05:33N 35°33' E 140°05'0 0.1
2016-Aug-18 04:31N 35°33' E 140°05'0 0.0
2016-Aug-18 03:28N 35°33' E 140°05'0 0.0
2016-Aug-18 02:31N 35°33' E 140°05'0 0.0
2016-Aug-18 01:31N 35°33' E 140°05'  

Dump ship's entire track history